Time;durP1;ratioP1;P1;durP2;ratioP2;P2;SDS_P1;SDS_P2;PMS_P1;PMS_P2;Temp;Humidity;BMP_temperature;BMP_pressure;BME280_temperature;BME280_humidity;BME280_pressure;Samples;Min_cycle;Max_cycle;Signal;HPM_P1;HPM_P2
2022/06/23 00:01:02;;;;;;;9.73;5.20;;;;;;;19.98;100.00;156500.81;5033491;28;20716;-76
2022/06/23 00:03:33;;;;;;;15.80;5.77;;;;;;;19.99;100.00;156502.09;5034712;28;20479;-76
2022/06/23 00:06:02;;;;;;;7.47;4.77;;;;;;;19.97;100.00;156496.88;5052312;28;20964;-76
2022/06/23 00:08:29;;;;;;;7.83;5.17;;;;;;;19.96;100.00;156495.56;5038477;28;20546;-76
2022/06/23 00:10:58;;;;;;;7.50;5.00;;;;;;;19.92;100.00;156485.16;5032745;28;20809;-76
2022/06/23 00:13:34;;;;;;;6.47;4.60;;;;;;;19.94;100.00;156489.06;5050465;28;20542;-76
2022/06/23 00:16:01;;;;;;;10.47;5.03;;;;;;;19.90;100.00;156478.66;5032864;28;20550;-75
2022/06/23 00:18:32;;;;;;;8.30;5.50;;;;;;;19.90;100.00;156478.66;5033332;28;20483;-76
2022/06/23 00:21:00;;;;;;;10.60;4.97;;;;;;;19.89;100.00;156476.03;5030600;28;20557;-75
2022/06/23 00:23:30;;;;;;;6.47;4.83;;;;;;;19.83;100.00;156460.41;5050896;28;20536;-75
2022/06/23 00:25:59;;;;;;;10.03;5.87;;;;;;;19.83;100.00;156461.66;5030975;28;20504;-76
2022/06/23 00:28:31;;;;;;;8.63;4.40;;;;;;;19.87;100.00;156472.13;5032712;28;20451;-75
2022/06/23 00:31:00;;;;;;;8.33;4.90;;;;;;;19.80;100.00;156453.84;5032077;28;20442;-75
2022/06/23 00:33:28;;;;;;;8.57;4.80;;;;;;;19.78;100.00;156447.31;5033502;28;20489;-75
2022/06/23 00:35:56;;;;;;;8.70;4.73;;;;;;;19.67;100.00;156419.94;5032963;28;20451;-76
2022/06/23 00:38:32;;;;;;;6.70;4.70;;;;;;;19.62;100.00;156405.66;5050038;28;20443;-76
2022/06/23 00:40:59;;;;;;;9.07;5.47;;;;;;;19.57;100.00;156392.56;5031200;28;20454;-76
2022/06/23 00:43:29;;;;;;;7.40;4.60;;;;;;;19.51;100.00;156376.97;5033088;28;20554;-82
2022/06/23 00:45:59;;;;;;;10.23;4.97;;;;;;;19.44;100.00;156361.31;5049702;28;20535;-82
2022/06/23 00:48:31;;;;;;;12.10;6.60;;;;;;;19.38;100.00;156345.66;5044105;28;20471;-82
2022/06/23 00:51:03;;;;;;;13.70;5.53;;;;;;;19.36;100.00;156339.09;5050328;28;20953;-82
2022/06/23 00:53:34;;;;;;;6.30;5.40;;;;;;;19.35;100.00;156336.50;5051553;28;20458;-82
2022/06/23 00:56:08;;;;;;;10.77;6.20;;;;;;;19.31;100.00;156327.38;5034336;28;20972;-82
2022/06/23 00:58:41;;;;;;;7.80;5.17;;;;;;;19.29;100.00;156320.84;5032735;28;20443;-82
2022/06/23 01:01:16;;;;;;;6.90;5.07;;;;;;;19.28;100.00;156319.53;5030383;28;20466;-82
2022/06/23 01:03:49;;;;;;;6.97;5.13;;;;;;;19.25;100.00;156311.72;5025202;28;20572;-82
2022/06/23 01:06:20;;;;;;;6.67;5.77;;;;;;;19.23;100.00;156305.19;5051893;28;20459;-83
2022/06/23 01:08:50;;;;;;;10.63;5.83;;;;;;;19.17;100.00;156290.88;5051275;28;20956;-82
2022/06/23 01:11:30;;;;;;;20.90;5.93;;;;;;;19.14;100.00;156281.78;5046417;28;20451;-82
2022/06/23 01:14:08;;;;;;;8.50;5.17;;;;;;;19.12;100.00;156277.84;5045858;28;20457;-82
2022/06/23 01:16:42;;;;;;;10.30;5.47;;;;;;;19.09;100.00;156270.00;5040715;28;21002;-82
2022/06/23 01:19:41;;;;;;;8.77;5.60;;;;;;;19.07;100.00;156264.81;5046273;28;20447;-82
2022/06/23 01:22:18;;;;;;;8.30;6.20;;;;;;;19.07;100.00;156264.81;5045098;28;20455;-82
2022/06/23 01:24:49;;;;;;;6.67;5.37;;;;;;;19.09;100.00;156268.75;5051736;28;20906;-82
2022/06/23 01:27:25;;;;;;;6.50;5.50;;;;;;;19.05;100.00;156259.59;5031048;28;20554;-82
2022/06/23 01:29:56;;;;;;;11.27;6.83;;;;;;;19.03;100.00;156253.09;5029734;28;20482;-82
2022/06/23 01:32:26;;;;;;;6.70;5.00;;;;;;;19.02;100.00;156250.47;5021363;28;20456;-82
2022/06/23 01:34:55;;;;;;;11.17;5.77;;;;;;;19.01;100.00;156249.16;5051667;28;20471;-82
2022/06/23 01:37:27;;;;;;;9.30;6.33;;;;;;;19.03;100.00;156254.41;5048107;28;20818;-82
2022/06/23 01:40:00;;;;;;;14.73;7.43;;;;;;;19.03;100.00;156253.09;5032214;28;20455;-82
2022/06/23 01:42:44;;;;;;;9.70;6.10;;;;;;;19.02;100.00;156250.47;5032428;28;20971;-82
2022/06/23 01:45:19;;;;;;;10.27;5.77;;;;;;;19.00;100.00;156246.59;5041144;28;20431;-82
2022/06/23 01:47:51;;;;;;;9.63;5.90;;;;;;;19.01;100.00;156247.91;5031395;28;20545;-82
2022/06/23 01:50:36;;;;;;;7.83;5.17;;;;;;;18.96;100.00;156234.81;5049437;28;20541;-82
2022/06/23 01:53:14;;;;;;;9.83;6.00;;;;;;;18.93;100.00;156228.31;5050409;28;20536;-82
2022/06/23 01:56:04;;;;;;;11.20;5.53;;;;;;;18.86;100.00;156210.09;5019670;28;20497;-82
2022/06/23 01:58:43;;;;;;;10.50;5.87;;;;;;;18.81;100.00;156197.06;5041686;28;20903;-82
2022/06/23 02:01:16;;;;;;;9.80;5.63;;;;;;;18.79;100.00;156191.84;5031403;28;20505;-82
2022/06/23 02:03:45;;;;;;;12.10;6.60;;;;;;;18.75;100.00;156182.72;5032635;28;20454;-82
2022/06/23 02:06:20;;;;;;;9.37;6.23;;;;;;;18.68;100.00;156163.19;5030004;28;20443;-82
2022/06/23 02:08:51;;;;;;;8.87;5.80;;;;;;;18.65;100.00;156155.38;5036257;28;20520;-82
2022/06/23 02:11:22;;;;;;;12.43;6.10;;;;;;;18.63;100.00;156150.16;5031980;28;20541;-82
2022/06/23 02:13:53;;;;;;;8.77;5.70;;;;;;;18.58;100.00;156138.44;5028804;28;20494;-82
2022/06/23 02:16:26;;;;;;;10.67;6.47;;;;;;;18.59;100.00;156141.03;5048680;28;20490;-82
2022/06/23 02:18:57;;;;;;;8.13;6.20;;;;;;;18.57;100.00;156134.53;5031290;28;20442;-82
2022/06/23 02:21:28;;;;;;;9.93;6.50;;;;;;;18.54;100.00;156126.69;5050581;28;20451;-82
2022/06/23 02:23:57;;;;;;;9.87;7.27;;;;;;;18.54;100.00;156126.69;5045277;28;20474;-82
2022/06/23 02:26:29;;;;;;;11.10;6.93;;;;;;;18.52;100.00;156122.81;5047282;28;22249;-82
2022/06/23 02:29:02;;;;;;;12.80;8.07;;;;;;;18.48;100.00;156111.09;5049408;28;20443;-82
2022/06/23 02:31:36;;;;;;;11.10;7.50;;;;;;;18.48;100.00;156111.09;5049179;28;20455;-82
2022/06/23 02:34:10;;;;;;;8.80;7.60;;;;;;;18.44;100.00;156100.59;5029209;28;20479;-82
2022/06/23 02:37:00;;;;;;;12.20;7.27;;;;;;;18.41;100.00;156094.09;5049409;28;20486;-82
2022/06/23 02:39:39;;;;;;;11.30;7.70;;;;;;;18.37;100.00;156082.38;5027018;28;20896;-82
2022/06/23 02:42:15;;;;;;;10.53;7.13;;;;;;;18.38;100.00;156084.97;5042337;28;20486;-82
2022/06/23 02:44:56;;;;;;;8.13;7.07;;;;;;;18.37;100.00;156082.38;5049967;28;20434;-82
2022/06/23 02:47:30;;;;;;;13.10;8.40;;;;;;;18.34;100.00;156074.56;5050280;28;20545;-82
2022/06/23 02:50:11;;;;;;;11.30;8.57;;;;;;;18.34;100.00;156074.56;5049513;28;20454;-82
2022/06/23 02:53:01;;;;;;;9.80;7.60;;;;;;;18.32;100.00;156069.38;5032557;28;20455;-82
2022/06/23 02:55:53;;;;;;;15.37;7.90;;;;;;;18.33;100.00;156071.94;5030329;28;20469;-82
2022/06/23 02:58:23;;;;;;;12.77;8.10;;;;;;;18.34;100.00;156075.88;5043354;28;20535;-82
2022/06/23 03:00:56;;;;;;;10.03;7.80;;;;;;;18.35;100.00;156077.19;5047421;28;20451;-82
2022/06/23 03:03:28;;;;;;;11.27;7.53;;;;;;;18.40;100.00;156090.22;5043389;28;20467;-82
2022/06/23 03:05:57;;;;;;;13.90;7.93;;;;;;;18.40;100.00;156090.22;5031417;28;20543;-82
2022/06/23 03:08:28;;;;;;;11.20;8.37;;;;;;;18.38;100.00;156084.97;5042115;28;20455;-82
2022/06/23 03:10:58;;;;;;;10.77;7.63;;;;;;;18.37;100.00;156082.38;5035035;28;20521;-82
2022/06/23 03:13:32;;;;;;;11.10;7.97;;;;;;;18.36;100.00;156081.06;5048801;28;20477;-81
2022/06/23 03:16:06;;;;;;;9.60;7.00;;;;;;;18.40;100.00;156090.22;5029969;28;20824;-81
2022/06/23 03:18:39;;;;;;;10.73;6.53;;;;;;;18.40;100.00;156091.47;5049659;28;20545;-82
2022/06/23 03:21:10;;;;;;;10.57;8.00;;;;;;;18.44;100.00;156100.59;5049924;28;20541;-82
2022/06/23 03:23:42;;;;;;;10.37;7.10;;;;;;;18.43;100.00;156099.28;5048949;28;20562;-81
2022/06/23 03:26:16;;;;;;;9.33;7.60;;;;;;;18.46;100.00;156105.81;5031530;28;20635;-81
2022/06/23 03:28:47;;;;;;;9.47;6.97;;;;;;;18.45;100.00;156103.22;5013632;28;20513;-81
2022/06/23 03:31:19;;;;;;;12.10;7.87;;;;;;;18.42;100.00;156096.72;5047468;28;20450;-81
2022/06/23 03:33:49;;;;;;;8.90;7.27;;;;;;;18.41;100.00;156092.78;5035314;28;20467;-82
2022/06/23 03:36:24;;;;;;;8.63;6.73;;;;;;;18.37;100.00;156083.69;5049505;28;20487;-81
2022/06/23 03:41:43;;;;;;;10.77;7.57;;;;;;;18.39;100.00;156088.88;5029390;28;20451;-81
2022/06/23 03:44:17;;;;;;;7.87;7.07;;;;;;;18.42;100.00;156096.72;5048167;28;20471;-81
2022/06/23 03:46:52;;;;;;;8.90;7.13;;;;;;;18.46;100.00;156105.81;5030555;28;20453;-81
2022/06/23 03:49:31;;;;;;;8.13;6.80;;;;;;;18.50;100.00;156116.31;5032699;28;20497;-82
2022/06/23 03:52:00;;;;;;;8.70;6.67;;;;;;;18.57;100.00;156134.53;5046714;28;20461;-82
2022/06/23 03:54:30;;;;;;;9.90;6.93;;;;;;;18.61;100.00;156144.97;5025277;28;20448;-82
2022/06/23 03:56:59;;;;;;;7.80;7.00;;;;;;;18.62;100.00;156147.53;5039830;28;20541;-81
2022/06/23 03:59:29;;;;;;;13.50;7.67;;;;;;;18.61;100.00;156144.97;5034512;28;20753;-82
2022/06/23 04:01:58;;;;;;;10.93;7.50;;;;;;;18.62;100.00;156147.53;5036019;28;20873;-82
2022/06/23 04:04:42;;;;;;;10.97;7.30;;;;;;;18.66;100.00;156158.00;5032013;28;20550;-82
2022/06/23 04:07:35;;;;;;;9.40;6.53;;;;;;;18.69;100.00;156165.81;5031387;28;20504;-81
2022/06/23 04:10:03;;;;;;;9.20;6.50;;;;;;;18.72;100.00;156173.59;5028514;28;20448;-81
2022/06/23 04:12:31;;;;;;;9.17;6.63;;;;;;;18.84;100.00;156204.88;5050247;28;20892;-82
2022/06/23 04:15:00;;;;;;;10.83;6.90;;;;;;;18.96;100.00;156236.13;5051791;28;20482;-81
2022/06/23 04:17:28;;;;;;;9.23;6.90;;;;;;;19.13;100.00;156279.16;5052524;28;20541;-81
2022/06/23 04:20:00;;;;;;;10.70;7.40;;;;;;;19.31;100.00;156327.38;5044158;28;20461;-81
2022/06/23 04:22:31;;;;;;;12.60;7.30;;;;;;;19.49;100.00;156371.72;5027978;28;20530;-82
2022/06/23 04:25:01;;;;;;;9.70;6.40;;;;;;;19.62;100.00;156405.66;5040081;28;20510;-82
2022/06/23 04:27:32;;;;;;;9.93;7.03;;;;;;;19.74;100.00;156438.22;5051735;28;20458;-82
2022/06/23 04:30:00;;;;;;;13.60;6.33;;;;;;;19.83;100.00;156460.41;5049178;28;20449;-81
2022/06/23 04:32:29;;;;;;;9.23;6.27;;;;;;;19.87;100.00;156472.13;5042176;28;20451;-82
2022/06/23 04:35:01;;;;;;;12.40;5.87;;;;;;;20.00;100.00;156504.72;5051378;28;20536;-82
2022/06/23 04:37:39;;;;;;;11.87;5.93;;;;;;;20.08;100.00;156525.59;5050512;28;20571;-82
2022/06/23 04:40:17;;;;;;;9.03;6.37;;;;;;;20.06;100.00;156520.38;5051102;28;20442;-82
2022/06/23 04:42:48;;;;;;;11.30;5.70;;;;;;;19.94;100.00;156489.06;5033094;28;20505;-82
2022/06/23 04:45:33;;;;;;;7.07;5.93;;;;;;;19.84;100.00;156463.00;5031602;28;20458;-82
2022/06/23 04:48:04;;;;;;;12.57;6.60;;;;;;;19.68;100.00;156421.25;5047623;28;20455;-81
2022/06/23 04:50:46;;;;;;;11.40;5.73;;;;;;;19.56;100.00;156390.00;5029729;28;20453;-82
2022/06/23 04:53:20;;;;;;;10.80;6.53;;;;;;;19.52;100.00;156379.53;5033506;28;20533;-82
2022/06/23 04:55:49;;;;;;;9.37;6.10;;;;;;;19.49;100.00;156371.72;5053760;28;21038;-82
2022/06/23 04:58:21;;;;;;;11.13;6.70;;;;;;;19.48;100.00;156369.13;5031844;28;20458;-83
2022/06/23 05:00:49;;;;;;;13.77;6.33;;;;;;;19.58;100.00;156395.19;5031741;28;20455;-82
2022/06/23 05:03:20;;;;;;;9.30;6.80;;;;;;;19.92;100.00;156483.84;5032307;28;20443;-81
2022/06/23 05:05:55;;;;;;;10.73;7.27;;;;;;;20.29;100.00;156580.41;5027190;28;20529;-82
2022/06/23 05:08:26;;;;;;;7.67;6.40;;;;;;;20.56;100.00;156649.53;5044017;28;20541;-89
2022/06/23 05:10:57;;;;;;;12.23;6.70;;;;;;;20.86;100.00;156726.53;5017086;28;20442;-82
2022/06/23 05:13:25;;;;;;;7.97;5.83;;;;;;;21.17;100.00;156807.47;5049355;28;20442;-81
2022/06/23 05:16:05;;;;;;;11.90;6.33;;;;;;;21.39;100.00;156863.59;5041607;28;20485;-81
2022/06/23 05:18:35;;;;;;;10.23;7.00;;;;;;;21.67;100.00;156938.00;5015262;28;20785;-81
2022/06/23 05:21:06;;;;;;;11.70;6.50;;;;;;;21.93;98.48;157003.31;5049141;28;20445;-82
2022/06/23 05:23:39;;;;;;;9.47;5.50;;;;;;;22.26;97.42;157090.84;5036016;28;20901;-82
2022/06/23 05:26:12;;;;;;;8.40;6.37;;;;;;;22.53;95.55;157158.75;5031430;28;21648;-82
2022/06/23 05:28:39;;;;;;;10.93;6.47;;;;;;;22.70;93.70;157204.50;5031567;28;20533;-82
2022/06/23 05:31:13;;;;;;;9.43;6.73;;;;;;;22.90;89.92;157255.50;5031039;28;20452;-82
2022/06/23 05:33:45;;;;;;;11.67;7.10;;;;;;;23.02;90.79;157288.16;5041195;28;20467;-82
2022/06/23 05:36:20;;;;;;;9.37;6.37;;;;;;;23.21;88.55;157336.50;5045234;28;20475;-81
2022/06/23 05:38:50;;;;;;;9.97;7.80;;;;;;;23.30;88.49;157360.00;5030222;28;21052;-82
2022/06/23 05:41:22;;;;;;;10.50;6.10;;;;;;;23.59;87.66;157435.84;5029004;28;20482;-82
2022/06/23 05:43:50;;;;;;;8.67;6.80;;;;;;;23.79;84.81;157485.53;5023689;28;20985;-82
2022/06/23 05:46:20;;;;;;;6.50;5.57;;;;;;;23.76;84.94;157479.00;5019145;28;20563;-82
2022/06/23 05:48:56;;;;;;;8.13;6.33;;;;;;;23.99;83.87;157537.81;5037709;28;20580;-82
2022/06/23 05:51:30;;;;;;;13.73;7.40;;;;;;;24.36;81.68;157633.38;5020966;28;20558;-83
2022/06/23 05:54:00;;;;;;;12.10;6.33;;;;;;;24.27;82.14;157611.13;5024612;28;20444;-83
2022/06/23 05:56:30;;;;;;;8.63;6.10;;;;;;;24.24;82.32;157603.28;5023768;28;20582;-83
2022/06/23 05:58:59;;;;;;;10.47;5.80;;;;;;;24.65;81.69;157710.50;5030613;28;20509;-83
2022/06/23 06:01:32;;;;;;;9.13;6.20;;;;;;;24.96;78.15;157790.41;5031040;28;20865;-82
2022/06/23 06:04:02;;;;;;;8.77;6.07;;;;;;;24.88;77.50;157768.16;5021673;28;20546;-83
2022/06/23 06:06:31;;;;;;;7.20;5.50;;;;;;;25.10;77.92;157825.75;5034955;28;21135;-83
2022/06/23 06:11:46;;;;;;;12.80;6.07;;;;;;;25.33;76.48;157887.22;5037014;28;20462;-83
2022/06/23 06:14:14;;;;;;;10.50;6.20;;;;;;;25.52;74.86;157934.41;5025627;28;21369;-83
2022/06/23 06:16:41;;;;;;;7.83;5.50;;;;;;;25.80;73.99;158007.69;5011205;28;20590;-83
2022/06/23 06:19:11;;;;;;;9.67;5.83;;;;;;;25.89;72.24;158031.25;5028501;28;20467;-83
2022/06/23 06:21:39;;;;;;;8.30;5.83;;;;;;;26.07;70.63;158078.41;5042872;28;20476;-83
2022/06/23 06:24:10;;;;;;;10.20;6.23;;;;;;;25.74;70.77;157991.97;5028003;28;20476;-83
2022/06/23 06:26:41;;;;;;;14.70;7.17;;;;;;;25.50;72.28;157929.13;5044351;28;20459;-83
2022/06/23 06:29:13;;;;;;;11.07;6.80;;;;;;;25.49;74.34;157927.84;5028041;28;21018;-83
2022/06/23 06:31:43;;;;;;;12.83;6.73;;;;;;;25.71;73.13;157984.09;5026408;28;20448;-84
2022/06/23 06:34:14;;;;;;;9.53;5.73;;;;;;;25.80;72.34;158007.69;5028856;28;20534;-84
2022/06/23 06:36:45;;;;;;;10.57;5.67;;;;;;;25.96;72.38;158049.59;5030203;28;20483;-84
2022/06/23 06:39:14;;;;;;;9.37;6.40;;;;;;;25.97;70.80;158053.47;5021071;28;20459;-84
2022/06/23 06:41:43;;;;;;;7.87;5.87;;;;;;;26.05;71.21;158071.84;5021763;28;20444;-84
2022/06/23 06:44:11;;;;;;;11.63;5.60;;;;;;;26.32;70.57;158143.88;5024887;28;20452;-84
2022/06/23 06:46:39;;;;;;;9.43;5.47;;;;;;;26.39;69.13;158162.25;5028187;28;20998;-84
2022/06/23 06:49:07;;;;;;;7.73;5.27;;;;;;;26.61;68.13;158218.53;5024378;28;20488;-84
2022/06/23 06:51:34;;;;;;;9.00;4.97;;;;;;;26.81;67.58;158271.00;5026769;28;20487;-84
2022/06/23 06:54:06;;;;;;;10.77;4.83;;;;;;;26.64;67.55;158226.41;5025629;28;20459;-84
2022/06/23 06:56:39;;;;;;;6.90;4.67;;;;;;;26.60;66.97;158215.94;5028692;28;20479;-84
2022/06/23 06:59:14;;;;;;;9.17;6.07;;;;;;;26.47;67.38;158183.22;5027485;28;20531;-84
2022/06/23 07:01:45;;;;;;;9.30;5.13;;;;;;;26.36;67.48;158154.41;5026820;28;20451;-84
2022/06/23 07:04:17;;;;;;;9.30;6.10;;;;;;;26.36;67.59;158154.41;5025384;28;20457;-84
2022/06/23 07:06:48;;;;;;;7.97;5.57;;;;;;;26.56;69.25;158206.75;5043773;28;20448;-84
2022/06/23 07:09:26;;;;;;;6.73;4.80;;;;;;;27.04;64.61;158329.94;5041754;28;20452;-84
2022/06/23 07:11:54;;;;;;;8.10;4.77;;;;;;;27.22;64.58;158377.09;5027083;28;20467;-85
2022/06/23 07:14:24;;;;;;;9.93;4.63;;;;;;;27.39;66.58;158421.69;5027957;28;20550;-84
2022/06/23 07:16:56;;;;;;;11.27;4.90;;;;;;;27.85;63.25;158541.00;5011506;28;20481;-85
2022/06/23 07:19:28;;;;;;;6.90;4.90;;;;;;;27.38;63.69;158417.72;5036534;28;21033;-85
2022/06/23 07:21:58;;;;;;;7.43;4.60;;;;;;;27.32;64.63;158403.34;5024337;28;20542;-84
2022/06/23 07:24:29;;;;;;;7.00;4.63;;;;;;;27.34;63.76;158408.56;5018104;28;20579;-85
2022/06/23 07:27:00;;;;;;;8.87;4.07;;;;;;;27.39;63.03;158421.69;5021670;28;20455;-85
2022/06/23 07:29:34;;;;;;;6.83;4.53;;;;;;;27.62;61.92;158482.00;5022719;28;20448;-85
2022/06/23 07:32:08;;;;;;;9.03;4.27;;;;;;;27.37;61.45;158416.44;5026525;28;20468;-85
2022/06/23 07:34:38;;;;;;;7.80;5.10;;;;;;;27.43;63.05;158430.91;5018463;28;20465;-85
2022/06/23 07:37:12;;;;;;;8.70;4.97;;;;;;;27.39;62.08;158420.34;5027944;28;20903;-85
2022/06/23 07:39:41;;;;;;;6.10;4.53;;;;;;;27.64;63.34;158487.22;5020096;28;20444;-84
2022/06/23 07:42:13;;;;;;;10.17;4.80;;;;;;;27.71;61.88;158504.28;5023784;28;20539;-84
2022/06/23 07:44:50;;;;;;;7.83;4.40;;;;;;;28.20;60.85;158631.47;5032728;28;20455;-85
2022/06/23 07:47:26;;;;;;;8.17;4.60;;;;;;;28.04;59.79;158589.56;5023198;28;20450;-85
2022/06/23 07:49:53;;;;;;;8.13;4.60;;;;;;;27.30;61.58;158398.06;5021879;28;20529;-84
2022/06/23 07:52:24;;;;;;;6.93;4.50;;;;;;;27.39;61.17;158420.34;5010298;28;20484;-84
2022/06/23 07:54:52;;;;;;;8.13;4.40;;;;;;;27.66;60.82;158492.50;5010871;28;20833;-84
2022/06/23 07:57:19;;;;;;;5.13;4.03;;;;;;;28.12;60.79;158611.81;5021368;28;20579;-85
2022/06/23 07:59:57;;;;;;;10.53;4.70;;;;;;;28.40;58.34;158683.94;5024746;28;20452;-84
2022/06/23 08:02:27;;;;;;;12.77;4.53;;;;;;;28.36;58.19;158674.75;5017242;28;20875;-85
2022/06/23 08:04:58;;;;;;;6.83;4.23;;;;;;;28.30;58.45;158657.72;5029011;28;20453;-84
2022/06/23 08:07:26;;;;;;;6.07;4.50;;;;;;;27.92;58.74;158558.03;5013573;28;20527;-84
2022/06/23 08:09:59;;;;;;;7.20;4.60;;;;;;;28.42;58.61;158689.19;5015696;28;20471;-84
2022/06/23 08:18:08;;;;;;;5.93;4.13;;;;;;;28.57;57.22;158728.50;5012735;28;20457;-84
2022/06/23 08:20:38;;;;;;;6.27;4.63;;;;;;;28.47;57.75;158700.97;5025924;28;20452;-85
2022/06/23 08:23:05;;;;;;;10.03;5.10;;;;;;;28.63;58.60;158744.31;5020164;28;20533;-84
2022/06/23 08:25:36;;;;;;;7.13;4.10;;;;;;;28.35;58.55;158670.84;5053385;28;20538;-85
2022/06/23 08:28:05;;;;;;;6.70;5.10;;;;;;;28.37;58.25;158676.06;5041706;28;20443;-84
2022/06/23 08:30:38;;;;;;;8.60;4.27;;;;;;;28.53;58.47;158718.03;5049706;28;20509;-85
2022/06/23 08:33:12;;;;;;;9.53;4.60;;;;;;;28.62;56.65;158741.66;5039424;28;20687;-85
2022/06/23 08:35:41;;;;;;;6.80;4.43;;;;;;;29.07;56.80;158857.13;5015940;28;20556;-85
2022/06/23 08:38:10;;;;;;;7.50;5.03;;;;;;;28.47;57.26;158702.28;5032139;28;20506;-85
2022/06/23 08:40:51;;;;;;;10.60;4.70;;;;;;;28.09;58.28;158602.66;5047602;28;20450;-85
2022/06/23 08:43:25;;;;;;;8.23;4.33;;;;;;;28.50;56.68;158710.16;5039058;28;20549;-85
2022/06/23 08:45:57;;;;;;;6.97;4.90;;;;;;;28.95;56.47;158826.94;5049729;28;20543;-85
2022/06/23 08:48:25;;;;;;;9.57;4.10;;;;;;;29.04;54.45;158849.25;5052691;28;20545;-85
2022/06/23 08:50:57;;;;;;;7.60;4.00;;;;;;;28.86;55.87;158804.63;5050829;28;20430;-86
2022/06/23 08:53:30;;;;;;;8.83;4.87;;;;;;;29.20;55.67;158892.53;5031370;28;20451;-85
2022/06/23 08:56:02;;;;;;;6.70;4.70;;;;;;;29.54;54.60;158981.81;5049312;28;20446;-85
2022/06/23 08:58:34;;;;;;;4.80;4.30;;;;;;;29.17;55.30;158883.34;5032099;28;20479;-85
2022/06/23 09:01:05;;;;;;;15.67;4.80;;;;;;;28.17;57.90;158623.66;5045463;28;20458;-85
2022/06/23 09:03:40;;;;;;;8.93;5.00;;;;;;;28.34;58.45;158668.19;5053128;28;20439;-85
2022/06/23 09:06:12;;;;;;;7.30;4.30;;;;;;;28.59;56.36;158733.78;5037774;28;20557;-85
2022/06/23 09:08:43;;;;;;;5.97;4.10;;;;;;;28.93;54.83;158823.03;5051065;28;20451;-85
2022/06/23 09:11:14;;;;;;;7.37;4.70;;;;;;;28.49;55.14;158707.53;5049592;28;20457;-85
2022/06/23 09:13:51;;;;;;;4.70;3.90;;;;;;;28.59;55.00;158732.47;5035809;28;20553;-85
2022/06/23 09:16:31;;;;;;;10.30;4.60;;;;;;;28.62;55.23;158741.66;5034114;28;20489;-85
2022/06/23 09:19:29;;;;;;;7.23;4.20;;;;;;;29.02;52.58;158845.28;5033809;28;20446;-85
2022/06/23 09:22:22;;;;;;;7.13;4.00;;;;;;;28.94;54.22;158825.59;5017379;28;20459;-85
2022/06/23 09:25:09;;;;;;;6.70;3.63;;;;;;;29.92;52.00;159078.94;5050762;28;20528;-83
2022/06/23 09:27:44;;;;;;;5.83;3.10;;;;;;;29.90;50.13;159075.00;5034980;28;20957;-85
2022/06/23 09:30:17;;;;;;;9.40;4.50;;;;;;;29.93;50.82;159082.91;5046863;28;20555;-85
2022/06/23 09:33:00;;;;;;;6.90;3.87;;;;;;;29.99;50.56;159098.66;5047101;28;20459;-85
2022/06/23 09:35:47;;;;;;;6.43;4.10;;;;;;;29.50;51.39;158969.97;5011705;28;20489;-84
2022/06/23 09:38:27;;;;;;;6.00;4.60;;;;;;;29.11;52.23;158867.59;5030716;28;20560;-85
2022/06/23 09:41:01;;;;;;;8.10;4.27;;;;;;;28.92;53.28;158819.06;5044022;28;20473;-85
2022/06/23 09:43:43;;;;;;;8.63;3.80;;;;;;;29.77;52.25;159040.84;5031222;28;20434;-85
2022/06/23 09:46:29;;;;;;;9.40;3.70;;;;;;;30.38;50.00;159198.44;5048884;28;20493;-85
2022/06/23 09:49:06;;;;;;;6.73;3.80;;;;;;;30.41;49.41;159206.31;5031807;28;20451;-85
2022/06/23 09:52:14;;;;;;;7.23;4.20;;;;;;;29.31;51.44;158920.16;5049567;28;20446;-85
2022/06/23 09:54:55;;;;;;;9.60;4.20;;;;;;;28.62;52.71;158740.41;5032218;28;20930;-85
2022/06/23 09:57:42;;;;;;;7.70;4.10;;;;;;;28.98;53.21;158834.81;5049048;28;20479;-85
2022/06/23 10:00:12;;;;;;;6.77;4.10;;;;;;;29.37;51.71;158935.84;5029842;28;20788;-85
2022/06/23 10:02:52;;;;;;;6.40;4.10;;;;;;;29.61;51.41;158998.84;5046149;28;20538;-85
2022/06/23 10:05:27;;;;;;;5.90;4.13;;;;;;;29.42;51.17;158948.97;5045726;28;20553;-85
2022/06/23 10:08:12;;;;;;;8.10;3.97;;;;;;;29.16;51.26;158880.69;5032940;28;20545;-85
2022/06/23 10:10:55;;;;;;;7.93;4.80;;;;;;;29.03;50.73;158846.59;5031783;28;20814;-85
2022/06/23 10:13:45;;;;;;;7.43;3.93;;;;;;;28.65;51.93;158749.53;5032269;28;20817;-85
2022/06/23 10:16:39;;;;;;;5.10;4.13;;;;;;;28.78;52.29;158783.63;5048958;28;20534;-85
2022/06/23 10:19:18;;;;;;;8.40;4.20;;;;;;;28.51;52.63;158712.81;5033606;28;20561;-85
2022/06/23 10:21:57;;;;;;;5.83;3.60;;;;;;;27.99;54.15;158577.69;5049865;28;20488;-85
2022/06/23 10:24:49;;;;;;;6.70;3.50;;;;;;;28.22;53.20;158636.75;5050766;28;20524;-85
2022/06/23 10:27:26;;;;;;;5.27;3.80;;;;;;;28.57;52.23;158727.22;5032707;28;20925;-85
2022/06/23 10:30:07;;;;;;;9.33;3.80;;;;;;;28.52;56.77;158714.06;5049235;28;20684;-86
2022/06/23 10:32:57;;;;;;;4.77;3.13;;;;;;;29.26;50.70;158906.97;5048000;28;20871;-85
2022/06/23 10:35:33;;;;;;;4.87;3.00;;;;;;;28.97;50.08;158833.50;5048838;28;20541;-85
2022/06/23 10:38:16;;;;;;;7.10;3.57;;;;;;;28.51;50.87;158712.81;5025691;28;20470;-85
2022/06/23 10:41:13;;;;;;;6.40;3.43;;;;;;;28.04;52.12;158589.56;5033021;28;20451;-85
2022/06/23 10:43:59;;;;;;;4.83;3.57;;;;;;;28.49;52.20;158706.25;4987638;28;21008;-85
2022/06/23 10:46:31;;;;;;;8.90;3.50;;;;;;;28.33;52.08;158665.56;5046215;28;20450;-85
2022/06/23 10:49:17;;;;;;;8.23;3.67;;;;;;;29.14;50.28;158875.47;5033573;28;20451;-85
2022/06/23 10:51:57;;;;;;;6.67;3.23;;;;;;;29.19;48.53;158888.59;5047660;28;20538;-85
2022/06/23 10:55:02;;;;;;;4.20;3.13;;;;;;;29.41;48.83;158947.69;5032495;28;20458;-85
2022/06/23 10:57:43;;;;;;;6.87;3.30;;;;;;;29.22;46.79;158896.50;5039132;28;20470;-85
2022/06/23 11:00:13;;;;;;;7.60;2.83;;;;;;;29.43;47.70;158951.63;5052331;28;20503;-85
2022/06/23 11:03:17;;;;;;;9.23;3.07;;;;;;;29.20;47.24;158891.22;5032489;28;20485;-85
2022/06/23 11:06:01;;;;;;;8.30;3.63;;;;;;;28.69;49.21;158758.75;5044541;28;20470;-85
2022/06/23 11:08:59;;;;;;;5.87;3.10;;;;;;;28.90;49.32;158815.13;5049454;28;20520;-85
2022/06/23 11:11:48;;;;;;;7.00;3.20;;;;;;;28.40;49.88;158683.94;5036403;28;20762;-85
2022/06/23 11:14:20;;;;;;;6.10;3.20;;;;;;;28.46;51.23;158699.69;5052142;28;20451;-85
2022/06/23 11:16:58;;;;;;;4.73;3.77;;;;;;;28.53;48.84;158718.03;5054056;28;20489;-85
2022/06/23 11:19:35;;;;;;;5.83;3.13;;;;;;;28.57;48.84;158728.50;5053984;28;20458;-85
2022/06/23 11:22:19;;;;;;;5.30;3.07;;;;;;;28.75;50.02;158775.75;5032410;28;20446;-84
2022/06/23 11:24:58;;;;;;;6.27;3.30;;;;;;;28.83;50.08;158795.47;5053738;28;20965;-85
2022/06/23 11:27:31;;;;;;;7.20;3.33;;;;;;;28.93;50.33;158823.03;5053204;28;20470;-85
2022/06/23 11:30:22;;;;;;;5.73;3.40;;;;;;;28.80;49.09;158788.91;5052739;28;20439;-84
2022/06/23 11:33:12;;;;;;;5.60;3.47;;;;;;;28.85;49.99;158802.03;5050774;28;20649;-85
2022/06/23 11:35:48;;;;;;;9.23;4.27;;;;;;;28.96;49.55;158830.84;5052091;28;20455;-85
2022/06/23 11:38:42;;;;;;;8.60;3.80;;;;;;;29.01;49.56;158841.38;5035079;28;21046;-85
2022/06/23 11:41:24;;;;;;;6.00;3.70;;;;;;;28.55;50.26;158721.94;5018959;28;20453;-85
2022/06/23 11:44:03;;;;;;;7.20;4.07;;;;;;;28.71;49.92;158765.28;5035135;28;20478;-84
2022/06/23 11:46:34;;;;;;;6.00;3.30;;;;;;;28.96;50.62;158830.84;5051943;28;20449;-84
2022/06/23 11:49:14;;;;;;;8.20;3.50;;;;;;;29.15;51.74;158879.38;5033895;28;20447;-85
2022/06/23 11:51:54;;;;;;;6.47;3.70;;;;;;;28.76;50.38;158778.41;5047956;28;20446;-85
2022/06/23 11:54:31;;;;;;;7.10;3.90;;;;;;;28.56;50.68;158725.91;5034294;28;20462;-85
2022/06/23 11:57:12;;;;;;;7.30;3.33;;;;;;;28.22;48.67;158636.75;5030921;28;20897;-84
2022/06/23 11:59:47;;;;;;;5.17;2.90;;;;;;;28.23;50.03;158640.66;5019805;28;20459;-85
2022/06/23 12:02:14;;;;;;;12.53;3.10;;;;;;;28.19;51.54;158630.19;5049948;28;20541;-84
2022/06/23 12:04:54;;;;;;;5.80;3.70;;;;;;;28.16;50.54;158621.00;5050549;28;20558;-84